sensor_id;sensor_type;location;lat;lon;timestamp;noise_LAeq;noise_LA_min;noise_LA_max;noise_LA01;noise_LA95
72690;Laerm;61053;52.166;4.506;2022-09-09T00:04:41;53.76;41.82;70.76;;
72690;Laerm;61053;52.166;4.506;2022-09-09T00:07:34;44.64;41.46;53.98;;
72690;Laerm;61053;52.166;4.506;2022-09-09T00:10:39;50.53;41.82;71.19;;
72690;Laerm;61053;52.166;4.506;2022-09-09T00:13:23;53.47;42.82;73.16;;
72690;Laerm;61053;52.166;4.506;2022-09-09T00:19:07;47.68;41.30;64.65;;
72690;Laerm;61053;52.166;4.506;2022-09-09T00:24:51;53.44;41.61;69.85;;
72690;Laerm;61053;52.166;4.506;2022-09-09T00:27:31;44.49;41.82;50.14;;
72690;Laerm;61053;52.166;4.506;2022-09-09T00:30:17;49.83;42.29;65.93;;
72690;Laerm;61053;52.166;4.506;2022-09-09T00:32:49;47.36;41.68;63.97;;
72690;Laerm;61053;52.166;4.506;2022-09-09T00:35:50;52.03;42.53;70.67;;
72690;Laerm;61053;52.166;4.506;2022-09-09T00:38:33;48.17;42.22;67.62;;
72690;Laerm;61053;52.166;4.506;2022-09-09T00:44:35;46.24;42.65;60.26;;
72690;Laerm;61053;52.166;4.506;2022-09-09T00:47:43;44.36;40.03;49.24;;
72690;Laerm;61053;52.166;4.506;2022-09-09T00:50:49;50.23;42.09;68.85;;
72690;Laerm;61053;52.166;4.506;2022-09-09T00:59:45;46.38;41.61;63.11;;
72690;Laerm;61053;52.166;4.506;2022-09-09T01:02:40;44.03;39.46;47.22;;
72690;Laerm;61053;52.166;4.506;2022-09-09T01:05:27;49.00;41.30;66.17;;
72690;Laerm;61053;52.166;4.506;2022-09-09T01:07:58;46.51;39.81;60.86;;
72690;Laerm;61053;52.166;4.506;2022-09-09T01:10:50;44.55;41.06;48.64;;
72690;Laerm;61053;52.166;4.506;2022-09-09T01:13:45;44.99;41.14;59.14;;
72690;Laerm;61053;52.166;4.506;2022-09-09T01:16:14;52.32;41.22;76.91;;
72690;Laerm;61053;52.166;4.506;2022-09-09T01:18:49;44.46;42.03;53.52;;
72690;Laerm;61053;52.166;4.506;2022-09-09T01:21:55;49.50;42.35;65.84;;
72690;Laerm;61053;52.166;4.506;2022-09-09T01:24:41;56.02;42.03;91.88;;
72690;Laerm;61053;52.166;4.506;2022-09-09T01:27:13;44.52;41.89;61.09;;
72690;Laerm;61053;52.166;4.506;2022-09-09T01:29:54;44.20;41.46;50.12;;
72690;Laerm;61053;52.166;4.506;2022-09-09T01:32:52;46.78;40.71;61.54;;
72690;Laerm;61053;52.166;4.506;2022-09-09T01:35:37;48.68;41.82;67.30;;
72690;Laerm;61053;52.166;4.506;2022-09-09T01:38:05;46.89;42.22;61.40;;
72690;Laerm;61053;52.166;4.506;2022-09-09T01:40:31;47.56;42.22;64.55;;
72690;Laerm;61053;52.166;4.506;2022-09-09T01:45:24;51.14;42.03;65.77;;
72690;Laerm;61053;52.166;4.506;2022-09-09T01:47:52;48.61;42.64;66.19;;
72690;Laerm;61053;52.166;4.506;2022-09-09T01:50:19;44.58;42.22;47.76;;
72690;Laerm;61053;52.166;4.506;2022-09-09T01:52:56;50.66;42.47;71.60;;
72690;Laerm;61053;52.166;4.506;2022-09-09T01:55:32;49.85;42.93;64.69;;
72690;Laerm;61053;52.166;4.506;2022-09-09T02:01:27;48.13;42.35;64.70;;
72690;Laerm;61053;52.166;4.506;2022-09-09T02:03:57;44.83;42.65;50.62;;
72690;Laerm;61053;52.166;4.506;2022-09-09T02:06:34;51.26;42.59;66.38;;
72690;Laerm;61053;52.166;4.506;2022-09-09T02:09:05;44.40;42.41;48.51;;
72690;Laerm;61053;52.166;4.506;2022-09-09T02:14:16;44.45;42.22;49.29;;
72690;Laerm;61053;52.166;4.506;2022-09-09T02:17:03;48.06;42.29;66.57;;
72690;Laerm;61053;52.166;4.506;2022-09-09T02:19:46;49.24;42.09;67.03;;
72690;Laerm;61053;52.166;4.506;2022-09-09T02:22:19;44.62;42.29;49.06;;
72690;Laerm;61053;52.166;4.506;2022-09-09T02:24:49;44.65;42.22;56.63;;
72690;Laerm;61053;52.166;4.506;2022-09-09T02:27:18;59.91;42.88;80.98;;
72690;Laerm;61053;52.166;4.506;2022-09-09T02:29:47;44.84;42.58;50.06;;
72690;Laerm;61053;52.166;4.506;2022-09-09T02:34:50;48.69;42.93;63.32;;
72690;Laerm;61053;52.166;4.506;2022-09-09T02:37:24;51.80;43.63;66.97;;
72690;Laerm;61053;52.166;4.506;2022-09-09T02:39:54;47.10;43.29;57.71;;
72690;Laerm;61053;52.166;4.506;2022-09-09T02:42:21;47.98;43.76;61.69;;
72690;Laerm;61053;52.166;4.506;2022-09-09T02:44:46;48.62;43.68;63.21;;
72690;Laerm;61053;52.166;4.506;2022-09-09T02:47:25;50.42;43.72;65.10;;
72690;Laerm;61053;52.166;4.506;2022-09-09T02:50:16;46.05;42.65;55.78;;
72690;Laerm;61053;52.166;4.506;2022-09-09T02:53:08;51.89;43.86;70.15;;
72690;Laerm;61053;52.166;4.506;2022-09-09T02:55:57;45.53;43.34;52.54;;
72690;Laerm;61053;52.166;4.506;2022-09-09T02:58:25;47.64;43.68;61.94;;
72690;Laerm;61053;52.166;4.506;2022-09-09T03:00:54;51.00;43.77;66.29;;
72690;Laerm;61053;52.166;4.506;2022-09-09T03:03:23;50.76;44.15;67.59;;
72690;Laerm;61053;52.166;4.506;2022-09-09T03:05:49;54.62;43.77;71.06;;
72690;Laerm;61053;52.166;4.506;2022-09-09T03:08:15;45.81;43.54;50.27;;
72690;Laerm;61053;52.166;4.506;2022-09-09T03:10:41;53.87;44.03;75.79;;
72690;Laerm;61053;52.166;4.506;2022-09-09T03:13:07;51.26;43.90;66.42;;
72690;Laerm;61053;52.166;4.506;2022-09-09T03:15:33;50.90;44.23;65.09;;
72690;Laerm;61053;52.166;4.506;2022-09-09T03:18:00;53.86;43.81;68.68;;
72690;Laerm;61053;52.166;4.506;2022-09-09T03:20:28;48.37;44.31;63.42;;
72690;Laerm;61053;52.166;4.506;2022-09-09T03:25:22;50.31;44.03;68.05;;
72690;Laerm;61053;52.166;4.506;2022-09-09T03:27:50;56.51;44.45;70.81;;
72690;Laerm;61053;52.166;4.506;2022-09-09T03:30:25;51.32;44.03;65.27;;
72690;Laerm;61053;52.166;4.506;2022-09-09T03:32:51;54.22;43.99;68.50;;
72690;Laerm;61053;52.166;4.506;2022-09-09T03:35:17;53.11;44.19;68.23;;
72690;Laerm;61053;52.166;4.506;2022-09-09T03:37:43;57.08;44.65;71.61;;
72690;Laerm;61053;52.166;4.506;2022-09-09T03:40:10;51.29;44.07;68.29;;
72690;Laerm;61053;52.166;4.506;2022-09-09T03:42:37;53.05;43.72;75.39;;
72690;Laerm;61053;52.166;4.506;2022-09-09T03:45:05;54.96;44.04;72.08;;
72690;Laerm;61053;52.166;4.506;2022-09-09T03:47:31;55.52;44.15;71.27;;
72690;Laerm;61053;52.166;4.506;2022-09-09T03:49:57;59.89;44.07;74.31;;
72690;Laerm;61053;52.166;4.506;2022-09-09T03:54:50;52.50;43.90;68.09;;
72690;Laerm;61053;52.166;4.506;2022-09-09T03:57:16;51.70;43.94;67.80;;
72690;Laerm;61053;52.166;4.506;2022-09-09T03:59:43;58.15;44.11;78.15;;
72690;Laerm;61053;52.166;4.506;2022-09-09T04:02:08;56.21;44.23;72.65;;
72690;Laerm;61053;52.166;4.506;2022-09-09T04:04:34;59.63;44.73;75.20;;
72690;Laerm;61053;52.166;4.506;2022-09-09T04:07:01;56.85;44.39;71.35;;
72690;Laerm;61053;52.166;4.506;2022-09-09T04:09:27;57.44;45.14;68.00;;
72690;Laerm;61053;52.166;4.506;2022-09-09T04:11:55;57.29;44.19;71.43;;
72690;Laerm;61053;52.166;4.506;2022-09-09T04:16:47;54.11;43.94;66.11;;
72690;Laerm;61053;52.166;4.506;2022-09-09T04:21:42;55.44;44.62;68.05;;
72690;Laerm;61053;52.166;4.506;2022-09-09T04:24:08;59.22;44.90;69.28;;
72690;Laerm;61053;52.166;4.506;2022-09-09T04:26:35;58.39;45.54;72.69;;
72690;Laerm;61053;52.166;4.506;2022-09-09T04:29:03;57.21;45.33;70.77;;
72690;Laerm;61053;52.166;4.506;2022-09-09T04:31:29;58.30;45.23;70.91;;
72690;Laerm;61053;52.166;4.506;2022-09-09T04:33:54;56.14;45.23;73.54;;
72690;Laerm;61053;52.166;4.506;2022-09-09T04:36:20;57.79;45.17;70.09;;
72690;Laerm;61053;52.166;4.506;2022-09-09T04:38:46;58.37;45.42;71.04;;
72690;Laerm;61053;52.166;4.506;2022-09-09T04:41:14;61.84;44.94;80.22;;
72690;Laerm;61053;52.166;4.506;2022-09-09T04:43:42;57.58;45.60;75.80;;
72690;Laerm;61053;52.166;4.506;2022-09-09T04:46:08;57.38;45.72;69.94;;
72690;Laerm;61053;52.166;4.506;2022-09-09T04:48:34;56.85;45.48;70.71;;
72690;Laerm;61053;52.166;4.506;2022-09-09T04:51:08;63.12;46.82;81.36;;
72690;Laerm;61053;52.166;4.506;2022-09-09T04:53:36;61.34;45.54;77.02;;
72690;Laerm;61053;52.166;4.506;2022-09-09T04:56:12;56.55;45.77;68.64;;
72690;Laerm;61053;52.166;4.506;2022-09-09T04:58:38;58.65;47.77;73.94;;
72690;Laerm;61053;52.166;4.506;2022-09-09T05:01:12;59.34;46.05;72.72;;
72690;Laerm;61053;52.166;4.506;2022-09-09T05:08:31;58.72;47.55;69.90;;
72690;Laerm;61053;52.166;4.506;2022-09-09T05:10:58;62.07;46.93;80.35;;
72690;Laerm;61053;52.166;4.506;2022-09-09T05:13:28;58.87;46.80;73.64;;
72690;Laerm;61053;52.166;4.506;2022-09-09T05:16:01;61.62;50.43;76.77;;
72690;Laerm;61053;52.166;4.506;2022-09-09T05:18:26;59.57;48.54;69.79;;
72690;Laerm;61053;52.166;4.506;2022-09-09T05:20:51;60.31;47.67;75.46;;
72690;Laerm;61053;52.166;4.506;2022-09-09T05:23:20;60.49;48.90;73.93;;
72690;Laerm;61053;52.166;4.506;2022-09-09T05:28:26;61.73;49.10;74.57;;
72690;Laerm;61053;52.166;4.506;2022-09-09T05:33:27;63.29;51.02;78.32;;
72690;Laerm;61053;52.166;4.506;2022-09-09T05:36:03;61.40;47.68;76.30;;
72690;Laerm;61053;52.166;4.506;2022-09-09T05:38:32;58.34;48.25;70.76;;
72690;Laerm;61053;52.166;4.506;2022-09-09T05:40:59;61.82;47.18;88.62;;
72690;Laerm;61053;52.166;4.506;2022-09-09T05:43:26;63.57;50.52;75.32;;
72690;Laerm;61053;52.166;4.506;2022-09-09T05:46:13;63.47;46.33;79.12;;
72690;Laerm;61053;52.166;4.506;2022-09-09T05:48:42;66.07;53.82;76.88;;
72690;Laerm;61053;52.166;4.506;2022-09-09T05:51:12;61.42;49.50;69.84;;
72690;Laerm;61053;52.166;4.506;2022-09-09T05:56:04;61.46;49.35;76.79;;
72690;Laerm;61053;52.166;4.506;2022-09-09T05:58:34;63.82;50.50;77.47;;
72690;Laerm;61053;52.166;4.506;2022-09-09T06:01:03;66.39;51.10;88.86;;
72690;Laerm;61053;52.166;4.506;2022-09-09T06:03:29;63.37;50.77;78.01;;
72690;Laerm;61053;52.166;4.506;2022-09-09T06:06:01;62.75;48.32;86.34;;
72690;Laerm;61053;52.166;4.506;2022-09-09T06:08:27;60.95;48.76;71.81;;
72690;Laerm;61053;52.166;4.506;2022-09-09T06:10:53;73.72;48.28;95.31;;
72690;Laerm;61053;52.166;4.506;2022-09-09T06:13:18;60.27;46.62;77.74;;
72690;Laerm;61053;52.166;4.506;2022-09-09T06:15:51;62.17;49.90;73.65;;
72690;Laerm;61053;52.166;4.506;2022-09-09T06:18:18;64.86;48.29;80.75;;
72690;Laerm;61053;52.166;4.506;2022-09-09T06:23:30;62.00;49.73;74.88;;
72690;Laerm;61053;52.166;4.506;2022-09-09T06:26:14;62.03;50.23;74.07;;
72690;Laerm;61053;52.166;4.506;2022-09-09T06:28:40;61.48;48.98;73.51;;
72690;Laerm;61053;52.166;4.506;2022-09-09T06:31:11;64.06;51.21;77.39;;
72690;Laerm;61053;52.166;4.506;2022-09-09T06:36:12;62.22;50.35;75.00;;
72690;Laerm;61053;52.166;4.506;2022-09-09T06:38:39;67.53;53.38;83.30;;
72690;Laerm;61053;52.166;4.506;2022-09-09T06:41:05;61.86;52.12;74.74;;
72690;Laerm;61053;52.166;4.506;2022-09-09T06:43:31;63.59;49.29;80.04;;
72690;Laerm;61053;52.166;4.506;2022-09-09T06:45:59;61.13;51.68;74.34;;
72690;Laerm;61053;52.166;4.506;2022-09-09T06:48:26;61.51;47.18;77.65;;
72690;Laerm;61053;52.166;4.506;2022-09-09T06:51:20;64.77;46.69;78.93;;
72690;Laerm;61053;52.166;4.506;2022-09-09T06:53:54;61.36;48.71;72.43;;
72690;Laerm;61053;52.166;4.506;2022-09-09T06:56:32;63.08;48.25;77.78;;
72690;Laerm;61053;52.166;4.506;2022-09-09T06:59:01;62.16;49.12;73.45;;
72690;Laerm;61053;52.166;4.506;2022-09-09T07:01:34;61.44;48.43;70.55;;
72690;Laerm;61053;52.166;4.506;2022-09-09T07:04:00;61.19;46.78;71.77;;
72690;Laerm;61053;52.166;4.506;2022-09-09T07:06:37;57.77;46.41;68.33;;
72690;Laerm;61053;52.166;4.506;2022-09-09T07:09:07;62.15;48.08;76.35;;
72690;Laerm;61053;52.166;4.506;2022-09-09T07:11:42;59.66;48.61;68.82;;
72690;Laerm;61053;52.166;4.506;2022-09-09T07:14:08;62.59;47.88;79.49;;
72690;Laerm;61053;52.166;4.506;2022-09-09T07:16:34;58.68;46.02;71.26;;
72690;Laerm;61053;52.166;4.506;2022-09-09T07:19:03;60.05;47.22;74.13;;
72690;Laerm;61053;52.166;4.506;2022-09-09T07:21:33;61.07;46.91;70.02;;
72690;Laerm;61053;52.166;4.506;2022-09-09T07:24:01;61.54;46.71;75.25;;
72690;Laerm;61053;52.166;4.506;2022-09-09T07:26:30;62.47;47.59;78.65;;
72690;Laerm;61053;52.166;4.506;2022-09-09T07:28:57;61.24;46.45;75.03;;
72690;Laerm;61053;52.166;4.506;2022-09-09T07:33:53;61.37;47.08;76.26;;
72690;Laerm;61053;52.166;4.506;2022-09-09T07:36:25;60.34;46.76;71.13;;
72690;Laerm;61053;52.166;4.506;2022-09-09T07:38:57;59.73;48.07;69.48;;
72690;Laerm;61053;52.166;4.506;2022-09-09T07:41:54;62.04;46.40;74.22;;
72690;Laerm;61053;52.166;4.506;2022-09-09T07:44:23;59.36;47.63;80.13;;
72690;Laerm;61053;52.166;4.506;2022-09-09T07:46:52;62.27;45.89;77.56;;
72690;Laerm;61053;52.166;4.506;2022-09-09T07:49:18;61.10;47.08;71.36;;
72690;Laerm;61053;52.166;4.506;2022-09-09T07:51:46;63.13;49.74;83.79;;
72690;Laerm;61053;52.166;4.506;2022-09-09T07:54:16;60.06;47.65;74.30;;
72690;Laerm;61053;52.166;4.506;2022-09-09T07:56:42;63.04;46.13;78.22;;
72690;Laerm;61053;52.166;4.506;2022-09-09T07:59:09;63.47;47.00;84.05;;
72690;Laerm;61053;52.166;4.506;2022-09-09T08:01:42;61.42;47.46;73.29;;
72690;Laerm;61053;52.166;4.506;2022-09-09T08:04:12;62.44;48.58;77.19;;
72690;Laerm;61053;52.166;4.506;2022-09-09T08:06:51;59.93;49.52;71.31;;
72690;Laerm;61053;52.166;4.506;2022-09-09T08:09:19;65.17;50.14;81.38;;
72690;Laerm;61053;52.166;4.506;2022-09-09T08:11:45;62.88;50.99;77.41;;
72690;Laerm;61053;52.166;4.506;2022-09-09T08:14:11;62.98;46.45;76.32;;
72690;Laerm;61053;52.166;4.506;2022-09-09T08:16:43;61.03;47.32;71.86;;
72690;Laerm;61053;52.166;4.506;2022-09-09T08:19:09;59.53;47.74;70.15;;
72690;Laerm;61053;52.166;4.506;2022-09-09T08:21:38;60.77;47.08;75.83;;
72690;Laerm;61053;52.166;4.506;2022-09-09T08:24:06;59.46;49.27;72.11;;
72690;Laerm;61053;52.166;4.506;2022-09-09T08:26:36;63.16;49.78;80.55;;
72690;Laerm;61053;52.166;4.506;2022-09-09T08:29:05;61.06;46.78;74.54;;
72690;Laerm;61053;52.166;4.506;2022-09-09T08:31:43;62.45;47.54;77.55;;
72690;Laerm;61053;52.166;4.506;2022-09-09T08:34:09;59.32;47.81;69.32;;
72690;Laerm;61053;52.166;4.506;2022-09-09T08:36:42;61.38;50.83;70.66;;
72690;Laerm;61053;52.166;4.506;2022-09-09T08:39:11;65.28;47.10;81.12;;
72690;Laerm;61053;52.166;4.506;2022-09-09T08:42:08;61.84;49.27;74.10;;
72690;Laerm;61053;52.166;4.506;2022-09-09T08:48:07;62.44;48.90;78.56;;
72690;Laerm;61053;52.166;4.506;2022-09-09T08:53:21;59.52;48.23;73.10;;
72690;Laerm;61053;52.166;4.506;2022-09-09T08:56:07;62.86;47.59;76.91;;
72690;Laerm;61053;52.166;4.506;2022-09-09T08:58:35;62.44;47.88;74.33;;
72690;Laerm;61053;52.166;4.506;2022-09-09T09:04:02;61.76;49.04;76.13;;
72690;Laerm;61053;52.166;4.506;2022-09-09T09:09:52;59.42;46.05;72.70;;
72690;Laerm;61053;52.166;4.506;2022-09-09T09:12:20;64.59;50.70;79.27;;
72690;Laerm;61053;52.166;4.506;2022-09-09T09:14:49;62.20;48.37;74.90;;
72690;Laerm;61053;52.166;4.506;2022-09-09T09:17:22;59.58;46.73;70.36;;
72690;Laerm;61053;52.166;4.506;2022-09-09T09:19:49;62.43;47.12;74.92;;
72690;Laerm;61053;52.166;4.506;2022-09-09T09:22:47;62.15;51.10;75.63;;
72690;Laerm;61053;52.166;4.506;2022-09-09T09:25:21;65.67;49.85;79.85;;
72690;Laerm;61053;52.166;4.506;2022-09-09T09:28:15;65.85;52.72;77.63;;
72690;Laerm;61053;52.166;4.506;2022-09-09T09:30:53;65.60;48.28;75.77;;
72690;Laerm;61053;52.166;4.506;2022-09-09T09:33:26;66.06;50.65;81.12;;
72690;Laerm;61053;52.166;4.506;2022-09-09T09:35:52;65.56;49.83;80.31;;
72690;Laerm;61053;52.166;4.506;2022-09-09T09:38:19;65.70;52.25;81.56;;
72690;Laerm;61053;52.166;4.506;2022-09-09T09:40:54;66.26;50.03;78.72;;
72690;Laerm;61053;52.166;4.506;2022-09-09T09:43:35;65.45;47.34;77.06;;
72690;Laerm;61053;52.166;4.506;2022-09-09T09:46:04;65.00;51.70;73.11;;
72690;Laerm;61053;52.166;4.506;2022-09-09T09:48:31;63.07;49.30;72.88;;
72690;Laerm;61053;52.166;4.506;2022-09-09T09:53:38;64.52;51.08;74.72;;
72690;Laerm;61053;52.166;4.506;2022-09-09T09:56:08;66.36;53.05;82.36;;
72690;Laerm;61053;52.166;4.506;2022-09-09T10:01:30;65.75;49.49;79.94;;
72690;Laerm;61053;52.166;4.506;2022-09-09T10:04:22;65.01;50.53;79.51;;
72690;Laerm;61053;52.166;4.506;2022-09-09T10:06:51;62.76;48.02;74.48;;
72690;Laerm;61053;52.166;4.506;2022-09-09T10:09:28;62.42;49.07;72.04;;
72690;Laerm;61053;52.166;4.506;2022-09-09T10:24:28;63.30;49.50;75.03;;
72690;Laerm;61053;52.166;4.506;2022-09-09T10:27:15;64.38;51.64;76.31;;
72690;Laerm;61053;52.166;4.506;2022-09-09T10:30:11;63.90;50.25;75.76;;
72690;Laerm;61053;52.166;4.506;2022-09-09T10:50:07;64.87;54.16;74.08;;
72690;Laerm;61053;52.166;4.506;2022-09-09T10:55:25;65.14;52.19;80.30;;
72690;Laerm;61053;52.166;4.506;2022-09-09T10:57:58;63.48;47.84;73.32;;
72690;Laerm;61053;52.166;4.506;2022-09-09T11:03:03;65.06;50.23;80.92;;
72690;Laerm;61053;52.166;4.506;2022-09-09T11:05:49;65.95;49.92;76.45;;
72690;Laerm;61053;52.166;4.506;2022-09-09T11:08:23;66.02;52.17;87.32;;
72690;Laerm;61053;52.166;4.506;2022-09-09T11:16:30;62.89;52.58;72.26;;
72690;Laerm;61053;52.166;4.506;2022-09-09T11:19:05;64.87;51.67;77.12;;
72690;Laerm;61053;52.166;4.506;2022-09-09T11:21:49;63.96;52.22;75.65;;
72690;Laerm;61053;52.166;4.506;2022-09-09T11:24:29;64.67;50.63;80.15;;
72690;Laerm;61053;52.166;4.506;2022-09-09T11:27:11;63.33;50.02;72.12;;
72690;Laerm;61053;52.166;4.506;2022-09-09T11:38:37;63.22;52.04;72.03;;
72690;Laerm;61053;52.166;4.506;2022-09-09T11:41:09;63.82;49.16;77.45;;
72690;Laerm;61053;52.166;4.506;2022-09-09T11:43:51;63.41;51.87;77.01;;
72690;Laerm;61053;52.166;4.506;2022-09-09T11:46:22;62.32;51.18;72.76;;
72690;Laerm;61053;52.166;4.506;2022-09-09T11:49:05;62.52;49.06;72.40;;
72690;Laerm;61053;52.166;4.506;2022-09-09T11:51:33;64.14;49.50;75.89;;
72690;Laerm;61053;52.166;4.506;2022-09-09T11:54:33;64.68;49.07;78.57;;
72690;Laerm;61053;52.166;4.506;2022-09-09T11:57:32;65.88;49.08;78.26;;
72690;Laerm;61053;52.166;4.506;2022-09-09T11:59:59;67.88;51.91;81.79;;
72690;Laerm;61053;52.166;4.506;2022-09-09T12:02:28;68.40;56.62;86.80;;
72690;Laerm;61053;52.166;4.506;2022-09-09T12:05:08;66.74;54.95;76.83;;
72690;Laerm;61053;52.166;4.506;2022-09-09T12:07:41;67.13;53.67;78.75;;
72690;Laerm;61053;52.166;4.506;2022-09-09T12:10:27;65.68;53.50;77.72;;
72690;Laerm;61053;52.166;4.506;2022-09-09T12:12:53;64.63;50.03;76.87;;
72690;Laerm;61053;52.166;4.506;2022-09-09T12:15:27;64.92;50.10;76.26;;
72690;Laerm;61053;52.166;4.506;2022-09-09T12:17:57;63.61;51.62;73.65;;
72690;Laerm;61053;52.166;4.506;2022-09-09T12:20:36;65.15;51.76;75.89;;
72690;Laerm;61053;52.166;4.506;2022-09-09T12:26:14;66.21;51.72;81.52;;
72690;Laerm;61053;52.166;4.506;2022-09-09T12:29:28;65.36;50.72;81.70;;
72690;Laerm;61053;52.166;4.506;2022-09-09T12:32:14;65.71;53.33;79.49;;
72690;Laerm;61053;52.166;4.506;2022-09-09T12:34:49;64.48;54.35;72.55;;
72690;Laerm;61053;52.166;4.506;2022-09-09T12:38:01;63.26;49.78;75.91;;
72690;Laerm;61053;52.166;4.506;2022-09-09T12:40:33;63.02;53.47;79.40;;
72690;Laerm;61053;52.166;4.506;2022-09-09T12:43:22;64.17;55.67;75.73;;
72690;Laerm;61053;52.166;4.506;2022-09-09T12:45:49;65.33;51.16;84.86;;
72690;Laerm;61053;52.166;4.506;2022-09-09T12:48:27;60.81;51.33;71.23;;
72690;Laerm;61053;52.166;4.506;2022-09-09T12:50:55;64.23;53.82;74.81;;
72690;Laerm;61053;52.166;4.506;2022-09-09T12:53:34;63.80;52.26;75.10;;
72690;Laerm;61053;52.166;4.506;2022-09-09T12:56:09;66.47;53.61;87.99;;
72690;Laerm;61053;52.166;4.506;2022-09-09T12:58:47;65.02;51.80;77.76;;
72690;Laerm;61053;52.166;4.506;2022-09-09T13:01:24;63.15;50.08;71.97;;
72690;Laerm;61053;52.166;4.506;2022-09-09T13:03:50;64.77;48.94;80.99;;
72690;Laerm;61053;52.166;4.506;2022-09-09T13:06:29;61.76;49.74;71.55;;
72690;Laerm;61053;52.166;4.506;2022-09-09T13:08:57;60.49;47.36;70.62;;
72690;Laerm;61053;52.166;4.506;2022-09-09T13:11:39;63.89;49.63;84.77;;
72690;Laerm;61053;52.166;4.506;2022-09-09T13:14:19;63.33;51.44;73.91;;
72690;Laerm;61053;52.166;4.506;2022-09-09T13:17:02;64.26;47.84;75.66;;
72690;Laerm;61053;52.166;4.506;2022-09-09T13:19:43;64.97;53.00;76.54;;
72690;Laerm;61053;52.166;4.506;2022-09-09T13:22:35;64.93;52.66;75.04;;
72690;Laerm;61053;52.166;4.506;2022-09-09T13:25:20;65.43;48.31;76.67;;
72690;Laerm;61053;52.166;4.506;2022-09-09T13:28:18;63.47;51.25;75.50;;
72690;Laerm;61053;52.166;4.506;2022-09-09T13:30:57;63.09;51.90;71.03;;
72690;Laerm;61053;52.166;4.506;2022-09-09T13:33:35;62.72;52.62;73.75;;
72690;Laerm;61053;52.166;4.506;2022-09-09T13:36:07;60.34;52.78;76.47;;
72690;Laerm;61053;52.166;4.506;2022-09-09T13:38:38;61.56;54.03;74.29;;
72690;Laerm;61053;52.166;4.506;2022-09-09T13:41:10;61.04;53.45;73.69;;
72690;Laerm;61053;52.166;4.506;2022-09-09T13:43:47;63.19;53.96;75.59;;
72690;Laerm;61053;52.166;4.506;2022-09-09T13:46:39;64.58;53.87;74.44;;
72690;Laerm;61053;52.166;4.506;2022-09-09T13:51:44;65.25;51.92;78.53;;
72690;Laerm;61053;52.166;4.506;2022-09-09T13:54:15;60.55;48.31;70.53;;
72690;Laerm;61053;52.166;4.506;2022-09-09T13:56:43;64.99;51.25;73.63;;
72690;Laerm;61053;52.166;4.506;2022-09-09T13:59:28;63.34;51.44;73.54;;
72690;Laerm;61053;52.166;4.506;2022-09-09T14:01:57;63.94;50.95;80.96;;
72690;Laerm;61053;52.166;4.506;2022-09-09T14:04:23;64.25;49.95;72.62;;
72690;Laerm;61053;52.166;4.506;2022-09-09T14:06:50;64.15;48.45;73.06;;
72690;Laerm;61053;52.166;4.506;2022-09-09T14:09:17;63.63;49.19;71.50;;
72690;Laerm;61053;52.166;4.506;2022-09-09T14:11:45;62.38;48.16;71.84;;
72690;Laerm;61053;52.166;4.506;2022-09-09T14:14:11;64.61;50.42;72.62;;
72690;Laerm;61053;52.166;4.506;2022-09-09T14:16:40;62.64;49.51;72.29;;
72690;Laerm;61053;52.166;4.506;2022-09-09T14:19:08;63.64;51.10;79.25;;
72690;Laerm;61053;52.166;4.506;2022-09-09T14:21:34;64.07;52.47;73.79;;
72690;Laerm;61053;52.166;4.506;2022-09-09T14:23:59;63.80;52.12;76.03;;
72690;Laerm;61053;52.166;4.506;2022-09-09T14:28:52;64.64;50.22;80.34;;
72690;Laerm;61053;52.166;4.506;2022-09-09T14:31:18;65.43;52.63;73.61;;
72690;Laerm;61053;52.166;4.506;2022-09-09T14:33:44;66.06;50.98;77.06;;
72690;Laerm;61053;52.166;4.506;2022-09-09T14:36:10;67.48;56.34;78.84;;
72690;Laerm;61053;52.166;4.506;2022-09-09T14:38:38;66.31;53.01;74.63;;
72690;Laerm;61053;52.166;4.506;2022-09-09T14:41:09;65.80;52.06;73.87;;
72690;Laerm;61053;52.166;4.506;2022-09-09T14:43:37;65.59;55.49;72.03;;
72690;Laerm;61053;52.166;4.506;2022-09-09T14:46:12;65.61;53.24;76.42;;
72690;Laerm;61053;52.166;4.506;2022-09-09T14:48:38;64.59;49.74;75.07;;
72690;Laerm;61053;52.166;4.506;2022-09-09T14:53:35;65.43;51.33;73.08;;
72690;Laerm;61053;52.166;4.506;2022-09-09T14:58:35;64.38;52.47;72.89;;
72690;Laerm;61053;52.166;4.506;2022-09-09T15:01:10;65.06;49.98;75.69;;
72690;Laerm;61053;52.166;4.506;2022-09-09T15:06:11;65.68;50.35;78.68;;
72690;Laerm;61053;52.166;4.506;2022-09-09T15:08:39;65.33;51.97;78.06;;
72690;Laerm;61053;52.166;4.506;2022-09-09T15:11:06;66.89;51.89;75.02;;
72690;Laerm;61053;52.166;4.506;2022-09-09T15:13:34;66.61;53.85;75.82;;
72690;Laerm;61053;52.166;4.506;2022-09-09T15:16:17;65.94;46.10;80.80;;
72690;Laerm;61053;52.166;4.506;2022-09-09T15:18:44;67.24;51.08;81.96;;
72690;Laerm;61053;52.166;4.506;2022-09-09T15:21:17;64.62;52.60;75.21;;
72690;Laerm;61053;52.166;4.506;2022-09-09T15:23:45;65.02;53.33;74.34;;
72690;Laerm;61053;52.166;4.506;2022-09-09T15:26:12;64.80;49.39;77.72;;
72690;Laerm;61053;52.166;4.506;2022-09-09T15:28:42;66.49;48.05;80.40;;
72690;Laerm;61053;52.166;4.506;2022-09-09T15:31:16;65.61;52.74;73.22;;
72690;Laerm;61053;52.166;4.506;2022-09-09T15:36:38;63.57;49.08;73.25;;
72690;Laerm;61053;52.166;4.506;2022-09-09T15:39:08;65.18;51.89;72.45;;
72690;Laerm;61053;52.166;4.506;2022-09-09T15:41:35;64.59;51.94;73.48;;
72690;Laerm;61053;52.166;4.506;2022-09-09T15:44:01;66.18;49.85;77.93;;
72690;Laerm;61053;52.166;4.506;2022-09-09T15:46:39;63.75;47.06;74.20;;
72690;Laerm;61053;52.166;4.506;2022-09-09T15:51:38;64.67;50.81;74.65;;
72690;Laerm;61053;52.166;4.506;2022-09-09T15:54:04;65.67;45.42;84.48;;
72690;Laerm;61053;52.166;4.506;2022-09-09T15:56:31;76.91;46.93;99.15;;
72690;Laerm;61053;52.166;4.506;2022-09-09T15:58:59;64.53;50.04;75.58;;
72690;Laerm;61053;52.166;4.506;2022-09-09T16:01:26;64.09;49.91;72.25;;
72690;Laerm;61053;52.166;4.506;2022-09-09T16:03:53;63.96;48.10;77.65;;
72690;Laerm;61053;52.166;4.506;2022-09-09T16:06:22;65.27;53.38;74.20;;
72690;Laerm;61053;52.166;4.506;2022-09-09T16:08:52;64.22;47.86;75.84;;
72690;Laerm;61053;52.166;4.506;2022-09-09T16:11:23;65.07;47.63;80.18;;
72690;Laerm;61053;52.166;4.506;2022-09-09T16:13:51;65.33;51.45;79.16;;
72690;Laerm;61053;52.166;4.506;2022-09-09T16:16:21;64.42;51.03;75.00;;
72690;Laerm;61053;52.166;4.506;2022-09-09T16:18:56;64.33;53.17;76.32;;
72690;Laerm;61053;52.166;4.506;2022-09-09T16:21:29;63.53;50.74;77.07;;
72690;Laerm;61053;52.166;4.506;2022-09-09T16:23:58;63.19;50.64;75.17;;
72690;Laerm;61053;52.166;4.506;2022-09-09T16:26:31;62.60;46.82;76.09;;
72690;Laerm;61053;52.166;4.506;2022-09-09T16:28:57;63.14;48.52;75.01;;
72690;Laerm;61053;52.166;4.506;2022-09-09T16:31:24;64.78;52.73;82.13;;
72690;Laerm;61053;52.166;4.506;2022-09-09T16:33:51;62.45;50.19;78.11;;
72690;Laerm;61053;52.166;4.506;2022-09-09T16:36:24;61.70;48.77;70.04;;
72690;Laerm;61053;52.166;4.506;2022-09-09T16:38:56;61.08;47.83;70.25;;
72690;Laerm;61053;52.166;4.506;2022-09-09T16:41:23;61.08;47.83;70.25;;
72690;Laerm;61053;52.166;4.506;2022-09-09T16:43:58;62.45;49.74;76.69;;
72690;Laerm;61053;52.166;4.506;2022-09-09T16:46:26;60.75;45.88;70.70;;